createdAt,value
2023-02-17T00:02:06.846Z,100.00
2023-02-17T00:06:59.110Z,100.00
2023-02-17T00:11:51.364Z,100.00
2023-02-17T00:16:43.437Z,100.00
2023-02-17T00:21:35.315Z,100.00
2023-02-17T00:26:27.437Z,100.00
2023-02-17T00:31:22.566Z,100.00
2023-02-17T00:36:17.960Z,100.00
2023-02-17T00:41:10.229Z,100.00
2023-02-17T00:46:04.458Z,100.00
2023-02-17T00:50:56.875Z,100.00
2023-02-17T00:55:50.134Z,100.00
2023-02-17T01:00:42.257Z,100.00
2023-02-17T01:05:34.454Z,100.00
2023-02-17T01:10:26.199Z,100.00
2023-02-17T01:15:17.988Z,100.00
2023-02-17T01:20:10.105Z,100.00
2023-02-17T01:25:01.936Z,100.00
2023-02-17T01:29:54.208Z,100.00
2023-02-17T01:34:45.997Z,100.00
2023-02-17T01:39:37.845Z,100.00
2023-02-17T01:44:32.306Z,100.00
2023-02-17T01:49:38.115Z,100.00
2023-02-17T01:54:45.239Z,100.00
2023-02-17T01:59:37.161Z,100.00
2023-02-17T02:04:32.475Z,100.00
2023-02-17T02:09:32.646Z,100.00
2023-02-17T02:14:24.638Z,100.00
2023-02-17T02:20:02.712Z,100.00
2023-02-17T02:25:29.955Z,100.00
2023-02-17T02:30:58.701Z,100.00
2023-02-17T02:36:15.571Z,100.00
2023-02-17T02:41:29.787Z,100.00
2023-02-17T02:46:21.793Z,100.00
2023-02-17T02:51:13.529Z,100.00
2023-02-17T02:56:23.051Z,100.00
2023-02-17T03:02:02.455Z,100.00
2023-02-17T03:07:01.961Z,100.00
2023-02-17T03:11:58.450Z,100.00
2023-02-17T03:16:52.307Z,100.00
2023-02-17T03:21:46.863Z,100.00
2023-02-17T03:26:38.589Z,100.00
2023-02-17T03:31:31.281Z,100.00
2023-02-17T03:36:23.428Z,100.00
2023-02-17T03:41:15.646Z,100.00
2023-02-17T03:46:12.581Z,100.00
2023-02-17T03:51:22.972Z,100.00
2023-02-17T03:56:15.668Z,100.00
2023-02-17T04:01:09.425Z,100.00
2023-02-17T04:06:02.276Z,100.00
2023-02-17T04:10:55.777Z,100.00
2023-02-17T04:15:48.210Z,100.00
2023-02-17T04:20:40.039Z,100.00
2023-02-17T04:25:37.436Z,100.00
2023-02-17T04:30:29.853Z,100.00
2023-02-17T04:35:22.699Z,100.00
2023-02-17T04:40:14.701Z,100.00
2023-02-17T04:45:07.786Z,100.00
2023-02-17T04:49:59.717Z,100.00
2023-02-17T04:54:51.947Z,100.00
2023-02-17T04:59:44.211Z,100.00
2023-02-17T05:04:36.400Z,100.00
2023-02-17T05:09:28.314Z,100.00
2023-02-17T05:14:20.120Z,100.00
2023-02-17T05:19:13.071Z,100.00
2023-02-17T05:24:06.449Z,100.00
2023-02-17T05:28:58.195Z,100.00
2023-02-17T05:33:51.175Z,100.00
2023-02-17T05:38:45.145Z,100.00
2023-02-17T05:43:37.990Z,100.00
2023-02-17T05:48:30.141Z,100.00
2023-02-17T05:53:22.072Z,100.00
2023-02-17T05:58:14.672Z,100.00
2023-02-17T06:03:06.548Z,100.00
2023-02-17T06:07:58.556Z,100.00
2023-02-17T06:12:50.267Z,100.00
2023-02-17T06:17:42.422Z,100.00
2023-02-17T06:22:34.560Z,100.00
2023-02-17T06:27:26.898Z,100.00
2023-02-17T06:32:18.839Z,100.00
2023-02-17T06:37:10.627Z,100.00
2023-02-17T06:42:02.448Z,100.00
2023-02-17T06:46:54.241Z,100.00
2023-02-17T06:51:46.103Z,100.00
2023-02-17T06:56:37.864Z,100.00
2023-02-17T07:01:29.969Z,100.00
2023-02-17T07:06:23.537Z,100.00
2023-02-17T07:11:16.300Z,100.00
2023-02-17T07:16:10.056Z,100.00
2023-02-17T07:21:02.426Z,100.00
2023-02-17T07:25:54.283Z,100.00
2023-02-17T07:30:46.114Z,100.00
2023-02-17T07:35:44.025Z,100.00
2023-02-17T07:40:36.049Z,100.00
2023-02-17T07:45:28.056Z,100.00
2023-02-17T07:50:20.081Z,100.00
2023-02-17T07:55:11.998Z,100.00
2023-02-17T08:00:05.661Z,100.00
2023-02-17T08:04:57.452Z,100.00
2023-02-17T08:10:07.719Z,100.00
2023-02-17T08:14:59.579Z,100.00
2023-02-17T08:19:51.362Z,100.00
2023-02-17T08:24:43.116Z,100.00
2023-02-17T08:29:34.950Z,100.00
2023-02-17T08:34:27.888Z,100.00
2023-02-17T08:39:19.854Z,100.00
2023-02-17T08:44:15.230Z,100.00
2023-02-17T08:49:08.336Z,100.00
2023-02-17T08:54:01.689Z,100.00
2023-02-17T08:58:53.703Z,100.00
2023-02-17T09:03:46.725Z,100.00
2023-02-17T09:08:39.443Z,100.00
2023-02-17T09:13:31.811Z,99.81
2023-02-17T09:18:23.934Z,100.00
2023-02-17T09:23:16.706Z,100.00
2023-02-17T09:28:08.501Z,98.52
2023-02-17T09:33:00.380Z,97.29
2023-02-17T09:37:52.563Z,95.74
2023-02-17T09:42:44.311Z,93.23
2023-02-17T09:47:44.000Z,92.27
2023-02-17T09:52:58.991Z,91.15
2023-02-17T09:57:57.051Z,87.45
2023-02-17T10:02:54.557Z,86.34
2023-02-17T10:07:51.078Z,85.33
2023-02-17T10:12:50.422Z,86.43
2023-02-17T10:17:58.867Z,86.34
2023-02-17T10:22:56.387Z,87.48
2023-02-17T10:28:08.123Z,89.14
2023-02-17T10:33:02.882Z,90.05
2023-02-17T10:38:06.367Z,90.83
2023-02-17T10:43:07.116Z,91.59
2023-02-17T10:48:05.118Z,91.48
2023-02-17T10:52:57.466Z,90.58
2023-02-17T10:57:54.250Z,89.98
2023-02-17T11:02:48.632Z,89.45
2023-02-17T11:07:42.451Z,89.48
2023-02-17T11:12:42.219Z,89.24
2023-02-17T11:17:42.480Z,89.19
2023-02-17T11:22:41.016Z,89.75
2023-02-17T11:27:33.052Z,87.69
2023-02-17T11:32:34.606Z,84.22
2023-02-17T11:37:27.961Z,82.62
2023-02-17T11:42:30.294Z,81.25
2023-02-17T11:47:59.540Z,80.71
2023-02-17T11:53:19.160Z,80.90
2023-02-17T11:58:25.998Z,74.93
2023-02-17T12:03:43.386Z,73.90
2023-02-17T12:09:08.046Z,71.97
2023-02-17T12:14:02.687Z,69.79
2023-02-17T12:18:54.355Z,69.00
2023-02-17T12:24:20.719Z,68.41
2023-02-17T12:44:49.543Z,66.20
2023-02-17T12:49:50.862Z,66.70
2023-02-17T12:54:56.307Z,64.53
2023-02-17T12:59:50.771Z,65.42
2023-02-17T13:04:45.558Z,64.01
2023-02-17T13:09:44.247Z,62.69
2023-02-17T13:14:50.156Z,64.97
2023-02-17T13:19:42.073Z,64.63
2023-02-17T13:24:54.315Z,64.34
2023-02-17T13:29:46.071Z,63.92
2023-02-17T13:34:43.637Z,63.42
2023-02-17T13:39:36.937Z,63.52
2023-02-17T13:44:33.800Z,68.53
2023-02-17T13:49:27.851Z,69.96
2023-02-17T13:54:22.945Z,72.04
2023-02-17T13:59:18.436Z,73.33
2023-02-17T14:04:27.192Z,73.56
2023-02-17T14:09:32.361Z,75.34
2023-02-17T14:14:33.544Z,75.59
2023-02-17T14:19:25.303Z,75.97
2023-02-17T14:24:33.778Z,76.71
2023-02-17T14:29:25.856Z,77.54
2023-02-17T14:34:20.655Z,77.21
2023-02-17T14:39:14.657Z,77.51
2023-02-17T14:44:06.533Z,76.08
2023-02-17T14:48:58.947Z,76.34
2023-02-17T14:53:51.358Z,76.35
2023-02-17T14:58:43.166Z,76.15
2023-02-17T15:03:34.900Z,77.50
2023-02-17T15:08:34.519Z,77.17
2023-02-17T15:13:26.643Z,77.32
2023-02-17T15:18:20.017Z,77.64
2023-02-17T15:23:18.046Z,76.71
2023-02-17T15:28:14.848Z,77.10
2023-02-17T15:33:13.981Z,76.82
2023-02-17T15:38:06.189Z,76.14
2023-02-17T15:43:03.504Z,76.28
2023-02-17T15:48:18.242Z,76.84
2023-02-17T15:53:09.905Z,76.43
2023-02-17T15:58:05.349Z,76.47
2023-02-17T16:02:57.127Z,76.42
2023-02-17T16:07:49.060Z,76.81
2023-02-17T16:12:41.557Z,76.33
2023-02-17T16:17:33.259Z,76.67
2023-02-17T16:22:25.291Z,76.67
2023-02-17T16:27:17.137Z,76.48
2023-02-17T16:32:12.921Z,76.40
2023-02-17T16:37:13.202Z,76.70
2023-02-17T16:42:05.331Z,76.95
2023-02-17T16:46:57.461Z,76.80
2023-02-17T16:51:49.671Z,77.06
2023-02-17T16:56:52.285Z,77.08
2023-02-17T17:01:44.731Z,77.59
2023-02-17T17:06:37.657Z,77.97
2023-02-17T17:11:29.492Z,78.14
2023-02-17T17:16:23.175Z,78.25
2023-02-17T17:21:18.206Z,77.94
2023-02-17T17:26:31.567Z,78.07
2023-02-17T17:31:24.144Z,78.52
2023-02-17T17:36:32.687Z,78.86
2023-02-17T17:41:25.692Z,78.58
2023-02-17T17:46:28.933Z,79.28
2023-02-17T17:51:22.514Z,79.44
2023-02-17T17:56:17.329Z,79.16
2023-02-17T18:01:09.161Z,80.07
2023-02-17T18:06:01.659Z,80.88
2023-02-17T18:10:53.524Z,82.14
2023-02-17T18:15:46.120Z,82.54
2023-02-17T18:20:37.857Z,83.23
2023-02-17T18:25:29.875Z,83.64
2023-02-17T18:30:21.868Z,84.04
2023-02-17T18:35:13.852Z,84.34
2023-02-17T18:40:06.218Z,85.63
2023-02-17T18:44:58.183Z,86.41
2023-02-17T18:49:49.987Z,87.49
2023-02-17T18:54:42.873Z,89.06
2023-02-17T18:59:34.577Z,89.78
2023-02-17T19:04:26.419Z,90.86
2023-02-17T19:09:18.386Z,91.55
2023-02-17T19:14:10.106Z,92.85
2023-02-17T19:19:02.024Z,93.73
2023-02-17T19:23:54.176Z,94.85
2023-02-17T19:28:46.404Z,95.37
2023-02-17T19:33:38.600Z,96.95
2023-02-17T19:38:30.324Z,99.02
2023-02-17T19:43:22.111Z,99.92
2023-02-17T19:48:13.850Z,100.00
2023-02-17T19:53:05.585Z,100.00
2023-02-17T19:57:57.308Z,100.00
2023-02-17T20:02:48.996Z,100.00
2023-02-17T20:07:40.732Z,100.00
2023-02-17T20:12:32.662Z,100.00
2023-02-17T20:17:24.375Z,100.00
2023-02-17T20:22:16.193Z,100.00
2023-02-17T20:27:08.183Z,100.00
2023-02-17T20:32:00.644Z,100.00
2023-02-17T20:36:52.381Z,100.00
2023-02-17T20:41:44.183Z,100.00
2023-02-17T20:46:36.461Z,100.00
2023-02-17T20:51:28.163Z,100.00
2023-02-17T20:56:22.632Z,100.00
2023-02-17T21:01:14.756Z,100.00
2023-02-17T21:06:19.402Z,100.00
2023-02-17T21:11:11.102Z,100.00
2023-02-17T21:16:02.937Z,100.00
2023-02-17T21:20:54.656Z,100.00
2023-02-17T21:25:46.357Z,100.00
2023-02-17T21:30:38.061Z,100.00
2023-02-17T21:35:29.932Z,100.00
2023-02-17T21:40:21.871Z,100.00
2023-02-17T21:45:13.688Z,100.00
2023-02-17T21:50:06.289Z,100.00
2023-02-17T21:54:58.019Z,100.00
2023-02-17T21:59:49.832Z,100.00
2023-02-17T22:04:41.578Z,100.00
2023-02-17T22:09:33.418Z,100.00
2023-02-17T22:14:25.150Z,100.00
2023-02-17T22:19:19.744Z,100.00
2023-02-17T22:24:11.870Z,100.00
2023-02-17T22:29:04.205Z,100.00
2023-02-17T22:33:57.542Z,100.00
2023-02-17T22:38:50.048Z,100.00
2023-02-17T22:43:43.169Z,100.00
2023-02-17T22:48:38.136Z,100.00
2023-02-17T22:53:29.873Z,100.00
2023-02-17T22:58:23.493Z,100.00
2023-02-17T23:03:16.851Z,100.00
2023-02-17T23:08:09.072Z,100.00
2023-02-17T23:13:00.962Z,100.00
2023-02-17T23:17:56.551Z,100.00
2023-02-17T23:22:48.502Z,100.00
2023-02-17T23:27:40.194Z,100.00
2023-02-17T23:32:32.230Z,100.00
2023-02-17T23:37:23.944Z,100.00
2023-02-17T23:42:15.682Z,100.00
2023-02-17T23:47:07.474Z,100.00
2023-02-17T23:51:59.538Z,100.00
2023-02-17T23:56:51.274Z,100.00
